マレ の空港の天気 - METARとTAF

マレ国際空港 ( VRMM / MLE ) - モルディブ Hulhule Island, North Male Atoll
飛行場実況気象(Metar)
観測時間02/21 06:00 MVT (02/21 01:00 UTC)
風向・風速東北東 6m/s
視程10km以上
天気現象
少しの雲 雲底高度 550m
全天の4割程度の雲 雲底高度 8530m
気温28℃
湿度79%
気圧1013hPa
METARVRMM 210100Z 07011KT 9999 FEW018 SCT280 28/24 Q1013 NOSIG
過去の天気等 Google飛行場航空写真 Wunderground天気予報

過去48時間のMETAR

飛行場予報(TAF)
発表時間: 2/21 04:00 MVT (2/20 23:00 UTC)
予報対象時間: 21日5時 MVT ~ 22日11時 MVT
風向・風速東 7m/s
視程10km以上
少しの雲 雲底高度 550m
21日7時 MVT ~ 21日13時 MVT に一時的に
少しの積乱雲 雲底高度 550m
TAF VRMM 202300Z 2100/2206 09014KT 9999 FEW018
TEMPO 2102/2108 FEW018CB